Dixon, NM (87527)

11:12 PM MDT on August 27, 2014 (GMT -0600)
First Arroyo | Change Station
CLOSE
Current Station
Personal Weather Station
Location: Dixon, NM
Elevation: 6037 ft
Nearby Weather Stations

Elev 6037 ft 36.20 °N, 105.90 °W | Updated 2 minutes ago

Clear
Clear
57.7 °F
Feels Like 57.7 °F
N
0.0
Wind Variable Wind from SSW

Today
High -- | Low -- °F
--% Chance of Precip.
Yesterday
High -- | Low -- °F
Precip. -- in
6:31 AM 7:38 PM
Waxing Crescent, 6% visible
Pressure 30.34 in
Visibility 10.0 miles
Clouds Clear
Dew Point 49 °F
Humidity 76%
Rainfall 0.00 in
Snow Depth 0 in
UV 0 out of 12
Pollen 4.40 out of 12
Air Quality Not available.
Flu Activity Not available.
METAR KLAM 280455Z AUTO 28008KT 10SM CLR 15/04 A3034 RMK AO2 T01510038

More Conditions Fewer Conditions

Pressure 30.34 in
Visibility 10.0 miles
Clouds Clear
Dew Point 49 °F
Humidity 76%
Rainfall 0.00 in
Snow Depth 0 in
UV 0 out of 12
Pollen 4.40 out of 12
Air Quality Not available.
Flu Activity Not available.
METAR KLAM 280455Z AUTO 28008KT 10SM CLR 15/04 A3034 RMK AO2 T01510038

More Conditions Fewer Conditions

10-Day Weather Forecast

Almanac

Astronomy

Aug. 27, 2014 Rise Set
Actual Time 6:31 AM MDT 7:38 PM MDT
Civil Twilight 6:04 AM MDT 8:04 PM MDT
Nautical Twilight 5:33 AM MDT 8:36 PM MDT
Astronomical Twilight 5:00 AM MDT 9:08 PM MDT
Moon 8:25 AM MDT (8/27) 8:37 PM MDT (8/27)
Length of Visible Light 13h 59m
Length of Day
13h 06m
Tomorrow will be 2m 11s shorter.
Waxing Crescent, 6% of the Moon is Illuminated
Aug 28
Waxing Crescent
Sep 2
First Quarter
Sep 8
Full
Sep 15
Last Quarter
Sep 24
New

Yesterday's Extremes

State Highs State Lows

Community

WunderPhotos

Upload Photos

1,747,908 photos uploaded!

Nearby

Snow Depth

Station Depth Elevation
Gallegos Peak 0 in 9800 ft
Santa Fe 0 in 11445 ft
Bateman 0 in 9300 ft
Quemazon 1 in 9500 ft
Wesner Springs 2 in 11120 ft

Earthquake Activity

City Distance Mag. Time & Date
No recent earthquake activity has been reported nearby.
Minimum magnitude displayed is 2.5.

Coastal Water Temperatures

Place Temperature
No Stations Reporting

Nearby Weather Stations